Time;durP1;ratioP1;P1;durP2;ratioP2;P2;SDS_P1;SDS_P2;PMS_P1;PMS_P2;Temp;Humidity;BMP_temperature;BMP_pressure;BME280_temperature;BME280_humidity;BME280_pressure;Samples;Min_cycle;Max_cycle;Signal;HPM_P1;HPM_P2
2023/01/27 00:03:23;;;;;;;35.30;12.57;;;;;;;3.71;75.36;100792.94;10243648;28;20713;-58
2023/01/27 00:08:27;;;;;;;36.10;11.73;;;;;;;3.77;75.42;100790.69;10238104;28;20062;-59
2023/01/27 00:13:30;;;;;;;39.22;11.80;;;;;;;3.82;75.33;100792.97;10230355;28;20130;-58
2023/01/27 00:18:32;;;;;;;35.92;12.18;;;;;;;3.88;75.34;100786.31;10248740;28;20051;-59
2023/01/27 00:28:53;;;;;;;38.30;10.73;;;;;;;3.93;75.41;100773.47;10238997;28;20043;-58
2023/01/27 00:34:00;;;;;;;27.95;9.50;;;;;;;3.91;75.49;100768.31;10239966;28;20050;-59
2023/01/27 00:39:03;;;;;;;22.65;8.70;;;;;;;3.97;75.27;100775.78;10236936;28;20078;-57
2023/01/27 00:44:04;;;;;;;22.92;7.85;;;;;;;3.99;75.53;100767.69;10241329;28;20282;-58
2023/01/27 00:49:06;;;;;;;19.58;6.75;;;;;;;4.00;75.54;100773.84;10238744;28;20130;-58
2023/01/27 00:54:08;;;;;;;17.55;6.10;;;;;;;4.02;75.70;100767.44;10237256;28;20074;-58
2023/01/27 00:59:09;;;;;;;11.30;5.78;;;;;;;3.97;76.14;100769.63;10240675;28;20047;-58
2023/01/27 01:04:10;;;;;;;11.45;4.60;;;;;;;4.03;75.45;100771.81;10242868;28;20461;-57
2023/01/27 01:09:12;;;;;;;12.02;4.78;;;;;;;4.02;75.92;100780.72;10236421;28;20461;-58
2023/01/27 01:14:13;;;;;;;9.18;4.38;;;;;;;4.02;75.97;100790.53;10236750;28;20491;-57
2023/01/27 01:19:14;;;;;;;10.00;5.25;;;;;;;4.06;76.18;100784.84;10237486;28;20077;-58
2023/01/27 01:24:16;;;;;;;11.20;5.25;;;;;;;4.09;75.94;100792.59;10234691;28;20514;-58
2023/01/27 01:29:18;;;;;;;10.63;4.85;;;;;;;4.12;76.28;100797.63;10237101;28;20514;-58
2023/01/27 01:34:19;;;;;;;11.00;5.20;;;;;;;4.11;76.28;100800.44;10231085;28;20147;-59
2023/01/27 01:39:20;;;;;;;13.23;5.15;;;;;;;4.16;76.22;100796.41;10238771;28;20042;-58
2023/01/27 01:44:25;;;;;;;13.30;5.78;;;;;;;4.21;76.02;100790.75;10245643;28;20470;-59
2023/01/27 01:49:38;;;;;;;11.73;5.45;;;;;;;4.25;75.81;100784.22;10238140;28;20083;-58
2023/01/27 01:54:47;;;;;;;15.13;5.45;;;;;;;4.29;75.67;100785.66;10240920;28;20086;-58
2023/01/27 02:00:00;;;;;;;9.63;5.45;;;;;;;4.29;75.79;100779.50;10245084;28;20070;-59
2023/01/27 02:05:09;;;;;;;11.52;5.03;;;;;;;4.27;75.92;100778.78;10246018;28;20086;-59
2023/01/27 02:10:11;;;;;;;10.60;5.00;;;;;;;4.25;75.94;100784.22;10251222;28;20418;-59
2023/01/27 02:15:14;;;;;;;13.45;6.30;;;;;;;4.25;75.98;100786.88;10248210;28;20050;-59
2023/01/27 02:20:42;;;;;;;14.00;6.03;;;;;;;4.28;75.46;100783.94;10245752;28;20048;-59
2023/01/27 02:25:51;;;;;;;14.63;6.18;;;;;;;4.26;75.70;100779.72;10250472;28;20130;-59
2023/01/27 02:30:53;;;;;;;14.30;5.45;;;;;;;4.23;76.47;100778.16;10247149;28;20435;-59
2023/01/27 02:36:02;;;;;;;15.20;6.78;;;;;;;4.24;76.09;100781.66;10251004;28;20052;-60
2023/01/27 02:41:39;;;;;;;16.85;6.20;;;;;;;4.26;76.02;100779.72;10243074;28;20050;-59
2023/01/27 02:46:40;;;;;;;15.73;6.55;;;;;;;4.23;76.13;100785.31;10224750;28;20047;-60
2023/01/27 02:51:42;;;;;;;12.25;6.07;;;;;;;4.24;76.13;100787.81;10250369;28;20553;-59
2023/01/27 02:56:43;;;;;;;12.55;5.97;;;;;;;4.30;76.10;100797.13;10242147;28;20051;-60
2023/01/27 03:01:44;;;;;;;15.23;5.97;;;;;;;4.25;76.32;100794.00;10242850;28;20094;-59
2023/01/27 03:06:46;;;;;;;12.75;6.00;;;;;;;4.25;76.21;100794.84;10243354;28;20541;-59
2023/01/27 03:22:27;;;;;;;10.38;4.88;;;;;;;4.25;76.27;100804.66;10240894;28;20114;-59
2023/01/27 03:27:28;;;;;;;9.85;5.25;;;;;;;4.25;76.19;100809.97;10245767;28;20047;-60
2023/01/27 03:32:31;;;;;;;9.15;5.22;;;;;;;4.23;76.27;100806.59;10239305;28;20106;-60
2023/01/27 03:48:13;;;;;;;12.35;5.97;;;;;;;4.31;76.19;100807.66;10242535;28;20054;-60
2023/01/27 03:53:14;;;;;;;11.07;5.75;;;;;;;4.30;76.11;100810.44;10248220;28;20061;-60
2023/01/27 03:58:27;;;;;;;10.35;5.57;;;;;;;4.30;76.09;100811.28;10241418;28;20051;-61
2023/01/27 04:08:51;;;;;;;11.52;5.22;;;;;;;4.33;76.14;100812.88;10246133;28;20146;-60
2023/01/27 04:13:52;;;;;;;9.05;4.68;;;;;;;4.34;76.14;100819.88;10239981;28;20094;-61
2023/01/27 04:18:55;;;;;;;10.30;5.63;;;;;;;4.38;75.89;100823.97;10241581;28;20062;-60
2023/01/27 04:23:57;;;;;;;10.70;5.32;;;;;;;4.38;75.87;100818.63;10239706;28;20455;-60
2023/01/27 04:28:59;;;;;;;10.85;5.40;;;;;;;4.37;75.43;100814.31;10244930;28;20086;-60
2023/01/27 04:34:01;;;;;;;13.50;5.53;;;;;;;4.36;75.72;100810.81;10240202;28;20079;-60
2023/01/27 04:39:02;;;;;;;11.05;5.32;;;;;;;4.34;75.67;100815.41;10238137;28;20043;-60
2023/01/27 04:44:04;;;;;;;8.95;5.03;;;;;;;4.37;75.63;100812.47;10244175;28;20129;-60
2023/01/27 04:49:06;;;;;;;9.18;5.00;;;;;;;4.38;75.65;100829.28;10237765;28;20097;-60
2023/01/27 04:54:08;;;;;;;11.55;5.78;;;;;;;4.40;75.56;100818.53;10238348;28;20047;-60
2023/01/27 04:59:11;;;;;;;10.93;5.55;;;;;;;4.36;75.64;100812.59;10238758;28;20059;-60
2023/01/27 05:04:13;;;;;;;10.55;6.32;;;;;;;4.39;75.79;100824.84;10236925;28;20067;-60
2023/01/27 05:09:14;;;;;;;8.63;4.50;;;;;;;4.40;75.92;100831.84;10237063;28;20281;-60
2023/01/27 05:14:15;;;;;;;8.57;4.78;;;;;;;4.41;75.69;100841.53;10238599;28;20504;-60
2023/01/27 05:19:17;;;;;;;7.93;4.72;;;;;;;4.38;76.04;100831.94;10234686;28;20155;-60
2023/01/27 05:24:18;;;;;;;8.00;4.40;;;;;;;4.32;76.08;100835.09;10234095;28;20055;-60
2023/01/27 05:29:19;;;;;;;9.77;4.38;;;;;;;4.34;75.77;100828.72;10225301;28;20143;-61
2023/01/27 05:34:21;;;;;;;6.68;3.83;;;;;;;4.32;76.27;100838.59;10238023;28;20047;-60
2023/01/27 05:39:23;;;;;;;7.78;4.82;;;;;;;4.29;75.48;100838.03;10246753;28;20631;-61
2023/01/27 05:44:24;;;;;;;8.95;4.78;;;;;;;4.33;75.98;100845.63;10238210;28;20412;-60
2023/01/27 05:49:25;;;;;;;12.55;6.07;;;;;;;4.32;75.73;100841.28;10245545;28;20136;-60
2023/01/27 05:54:27;;;;;;;8.55;5.13;;;;;;;4.31;75.68;100846.75;10244765;28;20118;-60
2023/01/27 05:59:28;;;;;;;10.02;6.13;;;;;;;4.24;75.62;100849.03;10246158;28;20078;-61
2023/01/27 06:04:29;;;;;;;12.85;6.25;;;;;;;4.21;76.11;100851.09;10237831;28;20137;-60
2023/01/27 06:09:31;;;;;;;11.88;5.65;;;;;;;4.11;75.86;100858.97;10244039;28;20122;-61
2023/01/27 06:14:32;;;;;;;12.43;6.15;;;;;;;4.12;75.83;100861.50;10229641;28;20126;-60
2023/01/27 06:19:33;;;;;;;11.20;6.15;;;;;;;4.16;75.91;100865.59;10246473;28;20134;-60
2023/01/27 06:24:35;;;;;;;12.80;6.90;;;;;;;4.19;75.92;100864.53;10245350;28;20110;-60
2023/01/27 06:29:36;;;;;;;11.57;6.85;;;;;;;4.24;76.04;100872.97;10237685;28;20051;-60
2023/01/27 06:34:38;;;;;;;15.30;7.32;;;;;;;4.25;75.99;100873.84;10237319;28;20079;-60
2023/01/27 06:39:39;;;;;;;12.93;6.78;;;;;;;4.29;76.12;100872.63;10244290;28;20075;-61
2023/01/27 06:44:41;;;;;;;12.85;6.43;;;;;;;4.32;76.46;100875.88;10237922;28;20142;-60
2023/01/27 06:49:42;;;;;;;12.68;7.22;;;;;;;4.36;76.36;100879.13;10242028;28;20071;-61
2023/01/27 06:54:44;;;;;;;11.57;6.22;;;;;;;4.42;75.83;100883.97;10238571;28;20238;-61
2023/01/27 06:59:45;;;;;;;10.52;6.07;;;;;;;4.45;76.13;100886.38;10234905;28;20047;-61
2023/01/27 07:04:47;;;;;;;11.57;6.40;;;;;;;4.51;76.14;100885.91;10235656;28;20051;-61
2023/01/27 07:09:48;;;;;;;12.57;6.88;;;;;;;4.67;75.96;100885.50;10238785;28;20130;-60
2023/01/27 07:14:53;;;;;;;7.72;4.68;;;;;;;4.73;75.78;100894.81;10237236;28;20708;-60
2023/01/27 07:19:54;;;;;;;8.48;4.95;;;;;;;4.72;76.20;100901.09;10238690;28;20117;-61
2023/01/27 07:24:56;;;;;;;8.75;5.70;;;;;;;4.79;75.77;100909.44;10235389;28;20055;-61
2023/01/27 07:29:57;;;;;;;10.85;5.50;;;;;;;4.94;75.42;100909.03;10240402;28;20118;-61
2023/01/27 07:34:58;;;;;;;9.13;5.60;;;;;;;4.97;75.09;100916.75;10236215;28;20086;-61
2023/01/27 07:40:00;;;;;;;7.70;5.03;;;;;;;4.95;75.50;100915.22;10242446;28;20126;-61
2023/01/27 07:45:01;;;;;;;9.38;5.25;;;;;;;4.99;75.25;100915.81;10238102;28;20470;-61
2023/01/27 07:50:03;;;;;;;10.18;4.95;;;;;;;5.06;75.23;100920.50;10237338;28;20074;-60
2023/01/27 07:55:05;;;;;;;8.77;5.68;;;;;;;5.07;75.29;100908.03;10238677;28;20915;-60
2023/01/27 08:00:07;;;;;;;8.02;5.53;;;;;;;5.04;75.35;100921.63;10241755;28;20149;-61
2023/01/27 08:05:08;;;;;;;7.13;4.45;;;;;;;5.07;75.63;100927.50;10241748;28;20090;-60
2023/01/27 08:10:10;;;;;;;7.03;4.00;;;;;;;5.10;75.49;100929.09;10239345;28;20047;-61
2023/01/27 08:15:12;;;;;;;7.47;4.70;;;;;;;5.06;75.65;100936.50;10237053;28;20419;-61
2023/01/27 08:20:14;;;;;;;9.50;5.20;;;;;;;5.19;75.61;100935.47;10242270;28;20109;-61
2023/01/27 08:25:16;;;;;;;8.05;4.05;;;;;;;5.17;75.08;100943.59;10234026;28;20071;-61
2023/01/27 08:30:18;;;;;;;8.05;4.80;;;;;;;5.26;74.94;100948.19;10233975;28;20532;-61
2023/01/27 08:35:20;;;;;;;7.97;4.65;;;;;;;5.24;75.35;100950.13;10239964;28;20050;-61
2023/01/27 08:40:21;;;;;;;6.47;4.32;;;;;;;5.24;75.32;100955.47;10237648;28;20106;-61
2023/01/27 08:45:22;;;;;;;6.20;3.83;;;;;;;5.29;75.76;100961.25;10235388;28;20067;-61
2023/01/27 08:50:24;;;;;;;6.90;4.40;;;;;;;5.39;75.45;100976.47;10238229;28;20588;-62
2023/01/27 08:55:30;;;;;;;8.80;4.78;;;;;;;5.43;74.90;100977.91;10234470;28;20608;-62
2023/01/27 09:00:31;;;;;;;6.28;3.92;;;;;;;5.46;75.22;100975.00;10241107;28;20154;-61
2023/01/27 09:05:34;;;;;;;5.72;4.07;;;;;;;5.46;75.09;100983.84;10235662;28;20063;-62
2023/01/27 09:10:38;;;;;;;6.97;4.00;;;;;;;5.54;74.77;101000.06;10234222;28;20157;-62
2023/01/27 09:15:39;;;;;;;6.80;4.32;;;;;;;5.64;75.44;101007.28;10232840;28;20185;-62
2023/01/27 09:20:41;;;;;;;8.50;5.20;;;;;;;5.64;74.65;101008.13;10236698;28;20146;-62
2023/01/27 09:25:42;;;;;;;6.68;4.00;;;;;;;5.76;74.69;101012.44;10233980;28;20154;-61
2023/01/27 09:30:44;;;;;;;8.60;4.43;;;;;;;5.73;74.83;101010.03;10231335;28;20161;-62
2023/01/27 09:35:56;;;;;;;7.88;4.35;;;;;;;5.72;74.42;101010.16;10238732;28;20062;-62
2023/01/27 09:41:35;;;;;;;7.53;4.75;;;;;;;5.84;74.60;101008.28;10237328;28;20134;-61
2023/01/27 09:47:12;;;;;;;7.85;4.40;;;;;;;5.88;74.43;101004.38;10236606;28;20627;-62
2023/01/27 09:52:51;;;;;;;7.18;3.70;;;;;;;5.98;74.29;101013.34;10225281;28;20099;-62
2023/01/27 09:58:08;;;;;;;5.13;3.50;;;;;;;6.00;73.88;101006.03;10225510;28;20052;-61
2023/01/27 10:03:35;;;;;;;4.78;2.85;;;;;;;5.94;74.07;101002.06;10243490;28;20062;-62
2023/01/27 10:08:58;;;;;;;4.55;3.05;;;;;;;5.90;74.65;101002.44;10231391;28;20142;-61
2023/01/27 10:14:25;;;;;;;4.47;3.10;;;;;;;5.97;74.10;100994.81;10244363;28;20074;-62
2023/01/27 10:19:47;;;;;;;3.50;2.55;;;;;;;5.99;73.90;100995.53;10247400;28;20082;-61
2023/01/27 10:25:27;;;;;;;4.82;2.80;;;;;;;6.07;74.27;100998.38;10245404;28;20142;-62
2023/01/27 10:30:33;;;;;;;5.68;2.75;;;;;;;6.18;73.48;100984.09;10238256;28;20468;-61
2023/01/27 10:35:56;;;;;;;4.95;3.00;;;;;;;6.31;73.35;100988.25;10247103;28;20058;-62
2023/01/27 10:41:26;;;;;;;3.25;2.20;;;;;;;6.32;73.76;100989.13;10228475;28;20054;-62
2023/01/27 10:46:55;;;;;;;3.67;2.70;;;;;;;6.47;73.91;100986.94;10245209;28;20059;-62
2023/01/27 10:52:04;;;;;;;3.00;2.25;;;;;;;6.47;73.79;100992.28;10241493;28;20054;-62
2023/01/27 10:57:16;;;;;;;2.78;2.28;;;;;;;6.59;73.21;100991.19;10242904;28;20180;-62
2023/01/27 11:02:31;;;;;;;3.40;1.88;;;;;;;6.63;72.95;100995.28;10245869;28;20138;-61
2023/01/27 11:07:44;;;;;;;2.92;2.10;;;;;;;6.77;73.10;100993.22;10248606;28;20047;-61
2023/01/27 11:12:50;;;;;;;3.80;2.70;;;;;;;6.77;72.66;100978.03;10240141;28;20134;-61
2023/01/27 11:18:09;;;;;;;4.07;2.30;;;;;;;6.84;72.31;100984.53;10248869;28;20106;-61
2023/01/27 11:23:19;;;;;;;2.97;1.98;;;;;;;6.87;72.80;100986.09;10242407;28;20044;-61
2023/01/27 11:28:41;;;;;;;2.35;1.60;;;;;;;6.86;72.27;100984.41;10228181;28;20055;-62
2023/01/27 11:33:45;;;;;;;4.32;2.35;;;;;;;6.79;72.76;100983.25;10225397;28;20572;-62
2023/01/27 11:38:47;;;;;;;2.67;1.80;;;;;;;6.84;71.91;100981.88;10246271;28;20048;-62
2023/01/27 11:43:48;;;;;;;2.47;1.83;;;;;;;6.90;71.71;100985.84;10245230;28;20146;-62
2023/01/27 11:48:55;;;;;;;1.95;1.65;;;;;;;6.92;72.44;100981.19;10250467;28;20066;-61
2023/01/27 11:54:14;;;;;;;3.53;2.05;;;;;;;6.83;72.32;100966.84;10240489;28;20133;-62
2023/01/27 11:59:31;;;;;;;1.52;1.05;;;;;;;6.77;72.42;100961.16;10240748;28;20073;-61
2023/01/27 12:05:00;;;;;;;2.93;1.63;;;;;;;6.92;71.66;100976.69;10243989;28;20741;-62
2023/01/27 12:10:02;;;;;;;1.30;0.90;;;;;;;6.84;71.90;100963.16;10245197;28;20067;-62
2023/01/27 12:15:04;;;;;;;1.00;0.70;;;;;;;6.72;71.73;100961.59;10237314;28;20087;-62
2023/01/27 12:20:31;;;;;;;1.17;0.77;;;;;;;6.80;72.20;100958.25;10237623;28;20143;-62
2023/01/27 12:25:44;;;;;;;0.85;0.45;;;;;;;6.75;71.44;100945.28;10229566;28;20121;-62
2023/01/27 12:30:46;;;;;;;0.70;0.40;;;;;;;6.75;72.08;100946.13;10238580;28;20640;-62
2023/01/27 12:35:49;;;;;;;0.60;0.40;;;;;;;6.75;71.49;100942.59;10237383;28;20114;-62
2023/01/27 12:41:03;;;;;;;0.82;0.50;;;;;;;6.70;71.34;100939.50;10224027;28;20458;-61
2023/01/27 12:46:18;;;;;;;0.52;0.40;;;;;;;6.69;71.58;100935.13;10236836;28;20130;-61
2023/01/27 12:51:22;;;;;;;1.00;0.50;;;;;;;6.76;70.66;100930.94;10237412;28;20058;-62
2023/01/27 12:56:24;;;;;;;1.95;0.50;;;;;;;6.90;70.88;100938.56;10238610;28;20055;-63
2023/01/27 13:01:32;;;;;;;0.85;0.47;;;;;;;6.90;70.55;100945.75;10245071;28;20078;-62
2023/01/27 13:06:42;;;;;;;0.40;0.30;;;;;;;6.79;70.99;100952.03;10241625;28;20059;-62
2023/01/27 13:11:44;;;;;;;0.80;0.30;;;;;;;6.85;70.76;100948.84;10240568;28;20818;-63
2023/01/27 13:16:53;;;;;;;1.65;0.30;;;;;;;6.90;70.41;100951.94;10234642;28;20525;-63
2023/01/27 13:21:55;;;;;;;0.68;0.30;;;;;;;6.90;70.09;100957.28;10232490;28;20047;-62
2023/01/27 13:26:59;;;;;;;0.73;0.40;;;;;;;6.94;70.86;100961.34;10238571;28;20054;-63
2023/01/27 13:32:22;;;;;;;0.30;0.30;;;;;;;6.94;70.57;100964.03;10235735;28;20085;-63
2023/01/27 13:37:47;;;;;;;1.58;0.43;;;;;;;7.09;69.63;100966.28;10235357;28;20143;-62
2023/01/27 13:43:09;;;;;;;0.70;0.40;;;;;;;7.03;69.85;100970.41;10237402;28;20453;-63
2023/01/27 13:48:25;;;;;;;1.80;0.50;;;;;;;7.02;69.61;100968.69;10237604;28;20514;-62
2023/01/27 13:53:26;;;;;;;0.47;0.35;;;;;;;6.95;70.84;100971.06;10247815;28;20074;-62
2023/01/27 13:59:18;;;;;;;0.60;0.30;;;;;;;7.08;70.29;100978.00;10240142;28;20102;-62
2023/01/27 14:04:54;;;;;;;0.50;0.40;;;;;;;7.11;69.81;100983.06;10051184;29;20109;-63
2023/01/27 14:10:22;;;;;;;0.63;0.40;;;;;;;7.03;70.20;100988.25;10227475;28;20071;-63
2023/01/27 14:15:50;;;;;;;0.70;0.30;;;;;;;7.02;70.05;100981.22;10241796;28;20083;-62
2023/01/27 14:21:13;;;;;;;1.92;0.50;;;;;;;6.97;69.96;100994.13;10245065;28;20138;-63
2023/01/27 14:26:47;;;;;;;0.93;0.20;;;;;;;6.97;70.10;100992.34;10244814;28;20158;-63
2023/01/27 14:32:03;;;;;;;2.63;1.23;;;;;;;7.05;70.02;100991.63;10244927;28;20122;-63
2023/01/27 14:37:21;;;;;;;6.00;2.00;;;;;;;7.19;69.42;101003.75;10241288;28;20099;-63
2023/01/27 14:42:40;;;;;;;1.65;0.20;;;;;;;7.21;69.05;101002.66;10238350;28;20174;-63
2023/01/27 14:48:09;;;;;;;0.40;0.25;;;;;;;7.17;69.82;101005.72;10242255;28;20608;-62
2023/01/27 14:53:33;;;;;;;0.40;0.20;;;;;;;7.14;69.41;101009.53;10242310;28;20074;-64
2023/01/27 14:58:49;;;;;;;3.42;0.20;;;;;;;7.14;70.22;101017.53;10240052;28;20096;-64
2023/01/27 15:04:24;;;;;;;1.05;0.30;;;;;;;7.12;69.91;101011.47;10238366;28;20083;-64
2023/01/27 15:09:38;;;;;;;0.93;0.43;;;;;;;7.11;68.98;101020.50;10237405;28;20118;-64
2023/01/27 15:15:02;;;;;;;0.88;0.43;;;;;;;7.14;69.53;101021.06;10239457;28;20089;-63
2023/01/27 15:20:27;;;;;;;1.27;0.40;;;;;;;7.17;68.98;101036.00;10217350;28;20788;-63
2023/01/27 15:25:43;;;;;;;0.65;0.38;;;;;;;7.13;69.34;101026.56;10240575;28;20166;-64
2023/01/27 15:31:08;;;;;;;1.05;0.60;;;;;;;7.11;68.96;101040.06;10237692;28;20139;-63
2023/01/27 15:36:31;;;;;;;0.43;0.35;;;;;;;7.06;69.57;101039.59;10238251;28;20495;-64
2023/01/27 15:41:32;;;;;;;1.30;0.60;;;;;;;7.03;69.63;101044.38;10222768;28;20133;-64
2023/01/27 15:46:36;;;;;;;0.80;0.50;;;;;;;7.04;69.13;101041.56;10239107;28;20158;-63
2023/01/27 15:51:37;;;;;;;0.57;0.30;;;;;;;6.98;69.21;101035.94;10236370;28;20057;-63
2023/01/27 15:56:46;;;;;;;0.40;0.30;;;;;;;6.93;69.75;101042.53;10240292;28;20173;-63
2023/01/27 16:01:57;;;;;;;0.50;0.30;;;;;;;6.94;69.41;101048.72;10234881;28;20047;-64
2023/01/27 16:07:01;;;;;;;0.65;0.50;;;;;;;7.02;69.21;101048.88;10232694;28;20050;-63
2023/01/27 16:12:18;;;;;;;1.10;0.60;;;;;;;6.95;69.43;101051.25;10220767;28;20502;-63
2023/01/27 16:17:24;;;;;;;0.67;0.50;;;;;;;6.96;69.33;101049.44;10236879;28;20091;-63
2023/01/27 16:22:29;;;;;;;1.58;0.50;;;;;;;6.93;69.54;101055.91;10241051;28;20074;-61
2023/01/27 16:27:50;;;;;;;1.70;0.70;;;;;;;6.90;69.02;101064.16;10234523;28;20138;-64
2023/01/27 16:33:06;;;;;;;2.85;0.82;;;;;;;6.86;69.41;101060.06;10218333;28;20051;-65
2023/01/27 16:38:23;;;;;;;4.72;1.10;;;;;;;6.81;69.19;101056.94;10240380;28;20167;-63
2023/01/27 16:43:30;;;;;;;1.55;0.82;;;;;;;6.77;69.85;101068.03;10237712;28;20091;-64
2023/01/27 16:48:44;;;;;;;2.03;0.70;;;;;;;6.72;69.44;101065.78;10235760;28;20052;-64
2023/01/27 16:53:47;;;;;;;1.08;0.95;;;;;;;6.69;69.87;101076.72;10242478;28;20078;-65
2023/01/27 16:58:50;;;;;;;1.70;0.95;;;;;;;6.65;69.74;101083.31;10238940;28;20091;-66
2023/01/27 17:03:55;;;;;;;1.30;0.75;;;;;;;6.65;69.94;101080.63;10238007;28;20079;-64
2023/01/27 17:08:58;;;;;;;1.75;1.02;;;;;;;6.64;69.92;101084.31;10240212;28;20043;-64
2023/01/27 17:14:01;;;;;;;2.17;1.67;;;;;;;6.63;69.45;101086.09;10242006;28;20576;-63
2023/01/27 17:19:20;;;;;;;1.58;0.80;;;;;;;6.61;69.90;101084.56;10237707;28;20051;-64
2023/01/27 17:24:26;;;;;;;3.20;1.10;;;;;;;6.62;70.37;101089.78;10232066;28;20106;-65
2023/01/27 17:30:02;;;;;;;1.60;1.35;;;;;;;6.55;70.28;101093.94;10238309;28;20059;-64
2023/01/27 17:35:07;;;;;;;1.65;1.25;;;;;;;6.49;71.24;101102.47;10213998;28;20387;-64
2023/01/27 17:40:17;;;;;;;4.13;1.13;;;;;;;6.49;71.08;101113.16;10240621;28;20090;-64
2023/01/27 17:45:22;;;;;;;1.63;1.20;;;;;;;6.48;71.28;101115.00;10232776;28;20052;-65
2023/01/27 17:50:29;;;;;;;2.72;1.35;;;;;;;6.43;70.66;101119.88;10242320;28;20723;-65
2023/01/27 17:55:31;;;;;;;1.27;0.90;;;;;;;6.41;71.54;101121.81;10235332;28;20043;-64
2023/01/27 18:00:41;;;;;;;1.52;1.15;;;;;;;6.44;71.00;101124.25;10215108;28;20515;-63
2023/01/27 18:05:45;;;;;;;2.17;1.38;;;;;;;6.46;71.14;101126.78;10237101;28;20071;-61
2023/01/27 18:10:46;;;;;;;1.58;1.10;;;;;;;6.41;70.60;101132.50;10236788;28;20138;-63
2023/01/27 18:15:48;;;;;;;1.70;1.30;;;;;;;6.35;71.23;101130.34;10242788;28;20082;-62
2023/01/27 18:20:56;;;;;;;1.45;0.88;;;;;;;6.25;71.11;101135.63;10240154;28;20055;-62
2023/01/27 18:26:11;;;;;;;1.95;1.75;;;;;;;6.24;70.73;101149.09;10237109;28;20146;-63
2023/01/27 18:31:21;;;;;;;2.90;1.67;;;;;;;6.21;71.08;101141.34;10232684;28;20051;-62
2023/01/27 18:36:27;;;;;;;2.28;1.50;;;;;;;6.20;71.63;101150.31;10242002;28;20059;-62
2023/01/27 18:41:31;;;;;;;3.38;1.40;;;;;;;6.11;71.10;101152.78;10248015;28;20142;-62
2023/01/27 18:46:33;;;;;;;2.58;1.52;;;;;;;6.14;71.58;101146.34;10241339;28;20129;-62
2023/01/27 18:51:34;;;;;;;2.00;1.40;;;;;;;6.10;70.61;101153.78;10246942;28;20063;-62
2023/01/27 18:56:35;;;;;;;2.53;1.00;;;;;;;6.03;71.41;101152.56;10244883;28;20085;-62
2023/01/27 19:01:37;;;;;;;1.67;1.00;;;;;;;6.01;71.31;101157.19;10247035;28;20079;-62
2023/01/27 19:06:38;;;;;;;2.47;1.23;;;;;;;6.00;71.92;101160.81;10243269;28;20130;-62
2023/01/27 19:11:39;;;;;;;3.05;1.33;;;;;;;6.02;71.58;101166.88;10241148;28;20154;-61
2023/01/27 19:16:41;;;;;;;2.53;1.50;;;;;;;6.03;71.17;101163.25;10222994;28;20723;-62
2023/01/27 19:21:42;;;;;;;3.83;2.03;;;;;;;6.01;70.67;101167.03;10237873;28;20135;-62
2023/01/27 19:26:44;;;;;;;4.53;1.55;;;;;;;5.99;71.11;101168.97;10239174;28;20605;-61
2023/01/27 19:31:45;;;;;;;4.05;1.33;;;;;;;5.94;71.07;101174.63;10235898;28;20060;-61
2023/01/27 19:36:47;;;;;;;2.92;1.25;;;;;;;5.89;71.14;101177.69;10219817;28;20078;-62
2023/01/27 19:41:48;;;;;;;2.40;1.45;;;;;;;5.81;71.44;101189.97;10238161;28;20660;-62
2023/01/27 19:46:50;;;;;;;1.50;1.17;;;;;;;5.77;71.67;101194.72;10237134;28;20566;-62
2023/01/27 19:51:52;;;;;;;4.25;1.60;;;;;;;5.76;71.35;101185.00;10231571;28;20138;-62
2023/01/27 19:56:53;;;;;;;2.83;1.27;;;;;;;5.67;71.08;101183.94;10237624;28;20055;-62
2023/01/27 20:01:55;;;;;;;2.53;1.48;;;;;;;5.64;71.53;101188.66;10238520;28;20051;-62
2023/01/27 20:06:57;;;;;;;1.67;0.98;;;;;;;5.63;71.55;101194.94;10233289;28;20051;-63
2023/01/27 20:11:59;;;;;;;2.70;1.40;;;;;;;5.57;70.75;101193.66;10235732;28;20058;-65
2023/01/27 20:17:01;;;;;;;3.15;1.60;;;;;;;5.55;71.44;101195.59;10235150;28;20090;-63
2023/01/27 20:22:02;;;;;;;2.78;1.38;;;;;;;5.45;71.13;101199.94;10225709;28;20106;-63
2023/01/27 20:27:04;;;;;;;1.85;1.30;;;;;;;5.40;70.94;101197.63;10239545;28;20131;-63
2023/01/27 20:32:08;;;;;;;1.65;1.23;;;;;;;5.41;71.40;101214.47;10237651;28;20526;-63
2023/01/27 20:37:10;;;;;;;2.08;1.23;;;;;;;5.41;71.39;101206.47;10235157;28;20126;-62
2023/01/27 20:42:11;;;;;;;2.17;1.30;;;;;;;5.45;70.90;101222.13;10238184;28;20142;-62
2023/01/27 20:47:14;;;;;;;3.08;1.77;;;;;;;5.47;71.24;101222.84;10226948;28;21028;-62
2023/01/27 20:52:15;;;;;;;2.15;1.40;;;;;;;5.50;71.23;101227.09;10237726;28;20135;-63
2023/01/27 20:57:19;;;;;;;1.73;0.80;;;;;;;5.48;70.55;101223.69;10238321;28;20239;-62
2023/01/27 21:02:20;;;;;;;2.10;1.23;;;;;;;5.50;70.97;101235.09;10242019;28;20130;-62
2023/01/27 21:07:23;;;;;;;2.28;1.20;;;;;;;5.44;70.95;101228.41;10240459;28;20118;-62
2023/01/27 21:12:26;;;;;;;3.13;1.38;;;;;;;5.42;70.91;101234.84;10233746;28;20065;-62
2023/01/27 21:17:27;;;;;;;2.33;1.60;;;;;;;5.43;71.02;101247.19;10232957;28;20134;-62
2023/01/27 21:22:28;;;;;;;2.22;1.30;;;;;;;5.48;71.37;101242.38;10233428;28;20101;-62
2023/01/27 21:27:30;;;;;;;2.47;1.20;;;;;;;5.52;70.77;101244.66;10236786;28;20139;-61
2023/01/27 21:32:31;;;;;;;2.00;0.93;;;;;;;5.59;70.89;101247.72;10238047;28;20047;-62
2023/01/27 21:37:34;;;;;;;2.90;1.33;;;;;;;5.60;71.18;101252.06;10237580;28;20562;-62
2023/01/27 21:47:55;;;;;;;1.60;1.05;;;;;;;5.59;70.76;101250.38;10240274;28;20071;-61
2023/01/27 21:52:57;;;;;;;3.55;1.30;;;;;;;5.48;71.50;101248.53;10235432;28;20211;-62
2023/01/27 21:57:59;;;;;;;2.97;1.90;;;;;;;5.58;71.24;101248.66;10236203;28;20118;-61
2023/01/27 22:03:02;;;;;;;3.25;1.73;;;;;;;5.62;70.63;101254.59;10244024;28;20074;-61
2023/01/27 22:08:05;;;;;;;3.15;1.55;;;;;;;5.60;71.13;101252.06;10240302;28;20178;-62
2023/01/27 22:13:09;;;;;;;2.30;1.75;;;;;;;5.59;71.25;101265.50;10248392;28;20137;-62
2023/01/27 22:18:11;;;;;;;3.92;1.60;;;;;;;5.57;70.84;101258.50;10229307;28;20102;-62
2023/01/27 22:23:12;;;;;;;1.52;1.20;;;;;;;5.53;71.13;101257.03;10247035;28;20570;-62
2023/01/27 22:28:14;;;;;;;4.20;1.52;;;;;;;5.57;70.97;101260.31;10248760;28;20521;-62
2023/01/27 22:33:15;;;;;;;2.70;1.42;;;;;;;5.61;70.92;101256.44;10243791;28;20059;-62
2023/01/27 22:44:28;;;;;;;1.55;0.98;;;;;;;5.58;70.97;101248.66;10884988;23;20043;-89
2023/01/27 22:49:29;;;;;;;3.45;1.40;;;;;;;5.50;70.98;101257.25;10236039;28;20051;-89
2023/01/27 22:54:31;;;;;;;2.05;1.10;;;;;;;5.44;71.16;101254.25;10258694;28;20332;-89
2023/01/27 23:00:05;;;;;;;1.52;0.98;;;;;;;5.39;71.32;101246.63;10260804;28;20051;-90
2023/01/27 23:05:12;;;;;;;2.50;1.17;;;;;;;5.39;70.43;101243.06;10250045;28;20039;-90
2023/01/27 23:10:15;;;;;;;3.75;1.27;;;;;;;5.29;71.54;101235.81;10232962;28;20429;-90
2023/01/27 23:15:59;;;;;;;3.80;1.73;;;;;;;5.31;70.98;101241.88;10251488;28;20573;-90
2023/01/27 23:21:35;;;;;;;4.90;1.33;;;;;;;5.35;71.17;101243.34;10254860;28;20055;-90
2023/01/27 23:27:50;;;;;;;;;;;;;;;;;;;;;
2023/01/27 23:33:23;;;;;;;;;;;;;;;5.28;71.58;101242.09;10198335;28;20055;-90
2023/01/27 23:38:31;;;;;;;2.25;1.77;;;;;;;5.18;70.77;101248.28;10230475;28;19922;-89
2023/01/27 23:43:37;;;;;;;3.15;1.20;;;;;;;5.10;71.26;101236.38;10199904;28;20043;-89
2023/01/27 23:48:39;;;;;;;2.72;1.15;;;;;;;5.07;70.81;101233.94;10234824;28;20181;-89
2023/01/27 23:53:41;;;;;;;3.70;2.13;;;;;;;4.98;70.96;101232.00;10265282;28;20134;-88
2023/01/27 23:58:44;;;;;;;3.20;1.05;;;;;;;4.97;70.90;101228.47;10254658;28;20142;-87
